South Chatham, Massachusetts
Current Conditions -  °F | °C
As of 5:52 PM on Saturday 22 Nov 2014 (Local Time) from KCQX Reporting Station
Few Clouds Few Clouds  
Wind Chill: 35°   Ceiling: Unl
Heat Index: 43°   Visibility: 10mi
Dew Point: 34°   Wind: 16mph
Humidity: 71%   Direction: 230°SW
Pressure: 30.18"   Gusts: 30mph
Location:  41.68°N, 70.02°W
Report Text: KCQX 222252Z AUTO 23014G26KT 10SM FEW110 06/01 A3018 RMK AO2 PK WND 24031/2240 SLP223 T00610011
Loading
Personal Weather Stations






























Interactive Weather Map New forecast layout! Learn more

10-Day Weather Forecast

Advertisements
Track Severe Weather on mobile